メインページ
METAR-TAF:

METAR-TAF

空港 :

トンコンティン国際空港

テグシガルパ, ホンジュラス

緯度: 14-03N, 経度: 087-13W, 海抜: 994m

現時点の気象観測

当レポートは28分前の04:00(UTC)に作成
無風
気温 20°C
湿度 88%
気圧 1017 hPa
視程: 8000m
高度2600ftの千切れ雲あり
高度2800ftの雲はほとんどない, 積乱雲.
高度8000ftの雲は散在している
小雨

METAR: MHTG 220400Z 00000KT 8000 -RA BKN026 FEW028CB SCT080 20/18 Q1017 A3003 RETS NOSIG

時間: 22:28 (04:28 UTC)

予報

当レポートは5時間28分前の23:00(UTC)に作成
予報は22日の 00時(UTC)から 22日の 24時(UTC)まで有効
南/南西の風 4kt
視程: 5000m
高度2800ftの雲は散在している, 塔状積雲.
高度3000ftの雲はほとんどない, 積乱雲.
高度8000ftの千切れ雲あり
激しい雷雨, 小雨
22日の 01時(UTC)から 22日の 07時(UTC)まで一時的に
の風 kt
視程: 3000m
高度2600ftの千切れ雲あり, 塔状積雲.
高度8000ftの千切れ雲あり
22日の 07時(UTC)から 22日の 09時(UTC)まで徐々に
視程: 8000m
高度700ftの雲はほとんどない
高度2400ftの千切れ雲あり, 塔状積雲.
高度8000ftの千切れ雲あり
近辺でにわか雨
22日の 12時(UTC)から 22日の 14時(UTC)まで徐々に
視程: 8000m
高度2800ftの雲は散在している
22日の 20時(UTC)から 22日の 22時(UTC)まで徐々に
の風 4kt
視程: 8000m
高度3000ftの雲は散在している, 塔状積雲.
高度3200ftの雲はほとんどない, 積乱雲.

TAF: MHTG 212300Z 2200/2224 21004KT 5000 -TSRA SCT028TCU FEW030CB BKN080 TX32/2219Z TN19/2212Z TEMPO 2201/2207 00000KT 3000 RA BKN026TCU BKN080 BECMG 2207/2209 8000 VCSH FEW007 BKN024TCU BKN080 BECMG 2212/2214 8000 NSW SCT028 BECMG 2220/2222 17004KT 8000 TSVCSH SCT030TCU FEW032CB

4,000以上の空港の気象観測と天気予報(METAR報とTAF報)

利用可能な観測所は地図上に黄色い丸と赤い丸で示す。

丸の上にカーソルを重ねると観測所名を参照できる。

次にクリックすると気象観測と天気予報を参照できる。

マップの切り替え:黒色「×」印の緑ボタンをクリックして拡大、「-」印の緑ボタンをクリックして縮小、緑色の三角印をクリックして隣りの地図に切り替え


METAR-TAF: